sensor_id;sensor_type;location;lat;lon;timestamp;P1;durP1;ratioP1;P2;durP2;ratioP2
64037;SDS011;54641;50.168;8.492;2023-01-19T00:01:56;15.20;;;5.80;;
64037;SDS011;54641;50.168;8.492;2023-01-19T00:04:29;14.80;;;6.70;;
64037;SDS011;54641;50.168;8.492;2023-01-19T00:06:59;12.30;;;6.50;;
64037;SDS011;54641;50.168;8.492;2023-01-19T00:09:31;11.00;;;6.20;;
64037;SDS011;54641;50.168;8.492;2023-01-19T00:12:05;15.60;;;6.70;;
64037;SDS011;54641;50.168;8.492;2023-01-19T00:14:36;24.60;;;10.60;;
64037;SDS011;54641;50.168;8.492;2023-01-19T00:17:06;30.80;;;12.60;;
64037;SDS011;54641;50.168;8.492;2023-01-19T00:19:37;13.80;;;7.40;;
64037;SDS011;54641;50.168;8.492;2023-01-19T00:22:08;11.70;;;5.90;;
64037;SDS011;54641;50.168;8.492;2023-01-19T00:24:38;14.10;;;6.40;;
64037;SDS011;54641;50.168;8.492;2023-01-19T00:27:08;13.40;;;6.60;;
64037;SDS011;54641;50.168;8.492;2023-01-19T00:29:39;15.10;;;6.80;;
64037;SDS011;54641;50.168;8.492;2023-01-19T00:32:09;12.70;;;6.40;;
64037;SDS011;54641;50.168;8.492;2023-01-19T00:34:40;17.30;;;8.30;;
64037;SDS011;54641;50.168;8.492;2023-01-19T00:37:16;30.10;;;11.40;;
64037;SDS011;54641;50.168;8.492;2023-01-19T00:39:47;32.10;;;13.10;;
64037;SDS011;54641;50.168;8.492;2023-01-19T00:42:17;16.70;;;7.80;;
64037;SDS011;54641;50.168;8.492;2023-01-19T00:45:07;16.10;;;6.60;;
64037;SDS011;54641;50.168;8.492;2023-01-19T00:47:39;12.80;;;6.20;;
64037;SDS011;54641;50.168;8.492;2023-01-19T00:50:10;8.50;;;3.70;;
64037;SDS011;54641;50.168;8.492;2023-01-19T00:52:43;10.20;;;6.40;;
64037;SDS011;54641;50.168;8.492;2023-01-19T00:55:14;13.30;;;6.50;;
64037;SDS011;54641;50.168;8.492;2023-01-19T00:57:45;18.80;;;8.30;;
64037;SDS011;54641;50.168;8.492;2023-01-19T01:02:48;28.60;;;11.60;;
64037;SDS011;54641;50.168;8.492;2023-01-19T01:05:19;13.20;;;7.70;;
64037;SDS011;54641;50.168;8.492;2023-01-19T01:07:50;14.00;;;6.70;;
64037;SDS011;54641;50.168;8.492;2023-01-19T01:10:21;13.90;;;6.20;;
64037;SDS011;54641;50.168;8.492;2023-01-19T01:12:53;13.20;;;6.60;;
64037;SDS011;54641;50.168;8.492;2023-01-19T01:15:43;9.20;;;5.60;;
64037;SDS011;54641;50.168;8.492;2023-01-19T01:18:16;12.30;;;6.30;;
64037;SDS011;54641;50.168;8.492;2023-01-19T01:20:47;16.70;;;7.10;;
64037;SDS011;54641;50.168;8.492;2023-01-19T01:23:18;11.00;;;5.60;;
64037;SDS011;54641;50.168;8.492;2023-01-19T01:25:49;21.50;;;9.10;;
64037;SDS011;54641;50.168;8.492;2023-01-19T01:28:20;30.20;;;12.90;;
64037;SDS011;54641;50.168;8.492;2023-01-19T01:30:52;33.90;;;15.00;;
64037;SDS011;54641;50.168;8.492;2023-01-19T01:33:23;33.90;;;14.40;;
64037;SDS011;54641;50.168;8.492;2023-01-19T01:36:08;14.20;;;7.70;;
64037;SDS011;54641;50.168;8.492;2023-01-19T01:38:39;14.30;;;7.10;;
64037;SDS011;54641;50.168;8.492;2023-01-19T01:41:10;12.60;;;7.30;;
64037;SDS011;54641;50.168;8.492;2023-01-19T01:43:42;12.00;;;6.80;;
64037;SDS011;54641;50.168;8.492;2023-01-19T01:46:15;14.20;;;6.40;;
64037;SDS011;54641;50.168;8.492;2023-01-19T01:48:50;11.50;;;6.10;;
64037;SDS011;54641;50.168;8.492;2023-01-19T01:51:23;10.90;;;5.50;;
64037;SDS011;54641;50.168;8.492;2023-01-19T01:53:59;16.60;;;7.90;;
64037;SDS011;54641;50.168;8.492;2023-01-19T01:56:34;25.10;;;10.00;;
64037;SDS011;54641;50.168;8.492;2023-01-19T01:59:06;28.90;;;13.30;;
64037;SDS011;54641;50.168;8.492;2023-01-19T02:01:38;30.40;;;14.10;;
64037;SDS011;54641;50.168;8.492;2023-01-19T02:04:27;19.50;;;10.50;;
64037;SDS011;54641;50.168;8.492;2023-01-19T02:06:58;11.80;;;7.20;;
64037;SDS011;54641;50.168;8.492;2023-01-19T02:09:47;15.40;;;7.30;;
64037;SDS011;54641;50.168;8.492;2023-01-19T02:12:35;14.00;;;7.10;;
64037;SDS011;54641;50.168;8.492;2023-01-19T02:15:22;11.10;;;5.50;;
64037;SDS011;54641;50.168;8.492;2023-01-19T02:17:53;11.50;;;6.50;;
64037;SDS011;54641;50.168;8.492;2023-01-19T02:20:25;20.40;;;8.20;;
64037;SDS011;54641;50.168;8.492;2023-01-19T02:22:57;19.40;;;9.00;;
64037;SDS011;54641;50.168;8.492;2023-01-19T02:25:30;37.00;;;15.00;;
64037;SDS011;54641;50.168;8.492;2023-01-19T02:28:01;29.80;;;12.30;;
64037;SDS011;54641;50.168;8.492;2023-01-19T02:30:32;18.50;;;8.80;;
64037;SDS011;54641;50.168;8.492;2023-01-19T02:33:03;14.60;;;7.90;;
64037;SDS011;54641;50.168;8.492;2023-01-19T02:35:34;13.40;;;8.00;;
64037;SDS011;54641;50.168;8.492;2023-01-19T02:38:05;14.60;;;7.90;;
64037;SDS011;54641;50.168;8.492;2023-01-19T02:40:36;14.10;;;7.60;;
64037;SDS011;54641;50.168;8.492;2023-01-19T02:43:07;23.10;;;10.90;;
64037;SDS011;54641;50.168;8.492;2023-01-19T02:45:38;32.50;;;14.00;;
64037;SDS011;54641;50.168;8.492;2023-01-19T02:48:10;28.30;;;13.10;;
64037;SDS011;54641;50.168;8.492;2023-01-19T02:50:42;18.10;;;8.50;;
64037;SDS011;54641;50.168;8.492;2023-01-19T02:53:23;16.70;;;8.20;;
64037;SDS011;54641;50.168;8.492;2023-01-19T02:56:26;14.20;;;7.50;;
64037;SDS011;54641;50.168;8.492;2023-01-19T02:59:05;14.80;;;7.30;;
64037;SDS011;54641;50.168;8.492;2023-01-19T03:01:50;22.10;;;9.50;;
64037;SDS011;54641;50.168;8.492;2023-01-19T03:04:34;23.20;;;8.80;;
64037;SDS011;54641;50.168;8.492;2023-01-19T03:08:09;15.30;;;8.30;;
64037;SDS011;54641;50.168;8.492;2023-01-19T03:10:44;13.90;;;8.10;;
64037;SDS011;54641;50.168;8.492;2023-01-19T03:13:18;17.50;;;8.60;;
64037;SDS011;54641;50.168;8.492;2023-01-19T03:15:53;16.10;;;8.40;;
64037;SDS011;54641;50.168;8.492;2023-01-19T03:18:25;14.70;;;7.90;;
64037;SDS011;54641;50.168;8.492;2023-01-19T03:20:57;23.50;;;9.80;;
64037;SDS011;54641;50.168;8.492;2023-01-19T03:23:32;28.20;;;13.30;;
64037;SDS011;54641;50.168;8.492;2023-01-19T03:26:04;25.20;;;12.50;;
64037;SDS011;54641;50.168;8.492;2023-01-19T03:28:39;15.10;;;8.70;;
64037;SDS011;54641;50.168;8.492;2023-01-19T03:31:11;15.90;;;8.40;;
64037;SDS011;54641;50.168;8.492;2023-01-19T03:33:47;16.70;;;8.20;;
64037;SDS011;54641;50.168;8.492;2023-01-19T03:36:22;20.30;;;9.10;;
64037;SDS011;54641;50.168;8.492;2023-01-19T03:38:55;13.80;;;7.00;;
64037;SDS011;54641;50.168;8.492;2023-01-19T03:41:27;18.20;;;7.80;;
64037;SDS011;54641;50.168;8.492;2023-01-19T03:43:59;12.90;;;7.50;;
64037;SDS011;54641;50.168;8.492;2023-01-19T03:46:29;20.30;;;10.10;;
64037;SDS011;54641;50.168;8.492;2023-01-19T03:49:00;35.10;;;14.30;;
64037;SDS011;54641;50.168;8.492;2023-01-19T03:51:33;21.70;;;9.90;;
64037;SDS011;54641;50.168;8.492;2023-01-19T03:54:05;40.90;;;17.90;;
64037;SDS011;54641;50.168;8.492;2023-01-19T03:56:37;22.10;;;10.80;;
64037;SDS011;54641;50.168;8.492;2023-01-19T03:59:07;17.40;;;9.10;;
64037;SDS011;54641;50.168;8.492;2023-01-19T04:01:38;14.40;;;8.20;;
64037;SDS011;54641;50.168;8.492;2023-01-19T04:04:08;17.50;;;8.60;;
64037;SDS011;54641;50.168;8.492;2023-01-19T04:06:40;15.40;;;7.90;;
64037;SDS011;54641;50.168;8.492;2023-01-19T04:09:10;19.00;;;8.50;;
64037;SDS011;54641;50.168;8.492;2023-01-19T04:11:41;24.10;;;11.10;;
64037;SDS011;54641;50.168;8.492;2023-01-19T04:14:11;37.00;;;15.70;;
64037;SDS011;54641;50.168;8.492;2023-01-19T04:16:42;39.70;;;16.80;;
64037;SDS011;54641;50.168;8.492;2023-01-19T04:19:12;49.80;;;20.70;;
64037;SDS011;54641;50.168;8.492;2023-01-19T04:21:43;26.90;;;12.70;;
64037;SDS011;54641;50.168;8.492;2023-01-19T04:24:13;18.80;;;10.30;;
64037;SDS011;54641;50.168;8.492;2023-01-19T04:26:43;14.00;;;7.30;;
64037;SDS011;54641;50.168;8.492;2023-01-19T04:29:14;17.20;;;9.80;;
64037;SDS011;54641;50.168;8.492;2023-01-19T04:31:44;18.40;;;9.00;;
64037;SDS011;54641;50.168;8.492;2023-01-19T04:34:15;18.20;;;10.50;;
64037;SDS011;54641;50.168;8.492;2023-01-19T04:36:45;26.90;;;11.70;;
64037;SDS011;54641;50.168;8.492;2023-01-19T04:39:17;41.10;;;16.70;;
64037;SDS011;54641;50.168;8.492;2023-01-19T04:41:48;37.80;;;18.30;;
64037;SDS011;54641;50.168;8.492;2023-01-19T04:44:19;20.60;;;11.10;;
64037;SDS011;54641;50.168;8.492;2023-01-19T04:46:50;18.30;;;9.80;;
64037;SDS011;54641;50.168;8.492;2023-01-19T04:49:20;17.80;;;10.20;;
64037;SDS011;54641;50.168;8.492;2023-01-19T04:51:52;15.60;;;8.30;;
64037;SDS011;54641;50.168;8.492;2023-01-19T04:54:22;18.00;;;9.60;;
64037;SDS011;54641;50.168;8.492;2023-01-19T04:56:53;16.80;;;9.10;;
64037;SDS011;54641;50.168;8.492;2023-01-19T04:59:24;17.60;;;8.20;;
64037;SDS011;54641;50.168;8.492;2023-01-19T05:01:54;24.00;;;11.10;;
64037;SDS011;54641;50.168;8.492;2023-01-19T05:04:25;34.00;;;14.70;;
64037;SDS011;54641;50.168;8.492;2023-01-19T05:06:55;36.90;;;14.90;;
64037;SDS011;54641;50.168;8.492;2023-01-19T05:09:26;28.90;;;15.00;;
64037;SDS011;54641;50.168;8.492;2023-01-19T05:11:56;17.90;;;10.10;;
64037;SDS011;54641;50.168;8.492;2023-01-19T05:14:27;20.90;;;9.80;;
64037;SDS011;54641;50.168;8.492;2023-01-19T05:16:57;18.80;;;10.00;;
64037;SDS011;54641;50.168;8.492;2023-01-19T05:19:29;19.70;;;10.10;;
64037;SDS011;54641;50.168;8.492;2023-01-19T05:22:00;14.20;;;7.20;;
64037;SDS011;54641;50.168;8.492;2023-01-19T05:24:31;22.90;;;10.50;;
64037;SDS011;54641;50.168;8.492;2023-01-19T05:27:02;24.30;;;13.20;;
64037;SDS011;54641;50.168;8.492;2023-01-19T05:29:32;32.70;;;17.60;;
64037;SDS011;54641;50.168;8.492;2023-01-19T05:32:03;27.20;;;13.80;;
64037;SDS011;54641;50.168;8.492;2023-01-19T05:34:34;21.40;;;10.70;;
64037;SDS011;54641;50.168;8.492;2023-01-19T05:37:04;19.90;;;10.80;;
64037;SDS011;54641;50.168;8.492;2023-01-19T05:39:35;16.60;;;9.00;;
64037;SDS011;54641;50.168;8.492;2023-01-19T05:42:05;17.90;;;9.60;;
64037;SDS011;54641;50.168;8.492;2023-01-19T05:44:36;12.00;;;6.90;;
64037;SDS011;54641;50.168;8.492;2023-01-19T05:47:06;16.60;;;9.20;;
64037;SDS011;54641;50.168;8.492;2023-01-19T05:49:37;30.40;;;16.10;;
64037;SDS011;54641;50.168;8.492;2023-01-19T05:52:07;21.30;;;10.90;;
64037;SDS011;54641;50.168;8.492;2023-01-19T05:54:38;22.90;;;11.00;;
64037;SDS011;54641;50.168;8.492;2023-01-19T05:57:08;18.20;;;10.20;;
64037;SDS011;54641;50.168;8.492;2023-01-19T05:59:39;18.10;;;9.60;;
64037;SDS011;54641;50.168;8.492;2023-01-19T06:02:09;19.70;;;10.80;;
64037;SDS011;54641;50.168;8.492;2023-01-19T06:04:40;22.90;;;11.50;;
64037;SDS011;54641;50.168;8.492;2023-01-19T06:07:11;23.00;;;12.70;;
64037;SDS011;54641;50.168;8.492;2023-01-19T06:09:41;29.40;;;13.80;;
64037;SDS011;54641;50.168;8.492;2023-01-19T06:12:12;33.30;;;16.20;;
64037;SDS011;54641;50.168;8.492;2023-01-19T06:14:42;16.00;;;8.40;;
64037;SDS011;54641;50.168;8.492;2023-01-19T06:17:13;15.30;;;8.10;;
64037;SDS011;54641;50.168;8.492;2023-01-19T06:19:43;20.40;;;12.00;;
64037;SDS011;54641;50.168;8.492;2023-01-19T06:22:14;19.40;;;10.40;;
64037;SDS011;54641;50.168;8.492;2023-01-19T06:24:44;19.90;;;10.70;;
64037;SDS011;54641;50.168;8.492;2023-01-19T06:27:14;25.20;;;11.40;;
64037;SDS011;54641;50.168;8.492;2023-01-19T06:29:45;26.40;;;13.60;;
64037;SDS011;54641;50.168;8.492;2023-01-19T06:32:15;37.30;;;17.80;;
64037;SDS011;54641;50.168;8.492;2023-01-19T06:34:46;34.40;;;16.50;;
64037;SDS011;54641;50.168;8.492;2023-01-19T06:39:48;23.60;;;9.90;;
64037;SDS011;54641;50.168;8.492;2023-01-19T06:42:19;19.70;;;9.30;;
64037;SDS011;54641;50.168;8.492;2023-01-19T06:44:49;19.10;;;11.20;;
64037;SDS011;54641;50.168;8.492;2023-01-19T06:47:19;24.10;;;11.60;;
64037;SDS011;54641;50.168;8.492;2023-01-19T06:49:50;31.10;;;16.70;;
64037;SDS011;54641;50.168;8.492;2023-01-19T06:52:20;41.50;;;16.00;;
64037;SDS011;54641;50.168;8.492;2023-01-19T06:54:51;34.40;;;17.30;;
64037;SDS011;54641;50.168;8.492;2023-01-19T06:57:23;20.80;;;11.40;;
64037;SDS011;54641;50.168;8.492;2023-01-19T06:59:53;20.30;;;11.80;;
64037;SDS011;54641;50.168;8.492;2023-01-19T07:02:25;23.20;;;11.50;;
64037;SDS011;54641;50.168;8.492;2023-01-19T07:04:56;19.20;;;11.60;;
64037;SDS011;54641;50.168;8.492;2023-01-19T07:07:26;22.00;;;11.60;;
64037;SDS011;54641;50.168;8.492;2023-01-19T07:09:57;29.30;;;15.30;;
64037;SDS011;54641;50.168;8.492;2023-01-19T07:12:27;36.30;;;17.30;;
64037;SDS011;54641;50.168;8.492;2023-01-19T07:14:59;35.70;;;17.50;;
64037;SDS011;54641;50.168;8.492;2023-01-19T07:17:29;20.20;;;11.00;;
64037;SDS011;54641;50.168;8.492;2023-01-19T07:20:00;21.50;;;11.00;;
64037;SDS011;54641;50.168;8.492;2023-01-19T07:22:31;22.60;;;12.30;;
64037;SDS011;54641;50.168;8.492;2023-01-19T07:25:01;23.20;;;12.30;;
64037;SDS011;54641;50.168;8.492;2023-01-19T07:27:32;17.90;;;10.10;;
64037;SDS011;54641;50.168;8.492;2023-01-19T07:30:02;21.70;;;10.90;;
64037;SDS011;54641;50.168;8.492;2023-01-19T07:32:34;29.00;;;14.90;;
64037;SDS011;54641;50.168;8.492;2023-01-19T07:35:05;39.10;;;16.80;;
64037;SDS011;54641;50.168;8.492;2023-01-19T07:37:36;41.90;;;18.90;;
64037;SDS011;54641;50.168;8.492;2023-01-19T07:40:08;24.90;;;13.20;;
64037;SDS011;54641;50.168;8.492;2023-01-19T07:42:41;20.30;;;10.90;;
64037;SDS011;54641;50.168;8.492;2023-01-19T07:45:15;15.70;;;9.10;;
64037;SDS011;54641;50.168;8.492;2023-01-19T07:47:47;19.60;;;9.70;;
64037;SDS011;54641;50.168;8.492;2023-01-19T07:50:18;20.60;;;10.90;;
64037;SDS011;54641;50.168;8.492;2023-01-19T07:52:51;27.50;;;14.70;;
64037;SDS011;54641;50.168;8.492;2023-01-19T07:55:22;35.00;;;17.80;;
64037;SDS011;54641;50.168;8.492;2023-01-19T07:57:52;25.80;;;13.70;;
64037;SDS011;54641;50.168;8.492;2023-01-19T08:00:23;22.20;;;10.00;;
64037;SDS011;54641;50.168;8.492;2023-01-19T08:02:57;20.70;;;12.30;;
64037;SDS011;54641;50.168;8.492;2023-01-19T08:05:28;25.10;;;13.00;;
64037;SDS011;54641;50.168;8.492;2023-01-19T08:07:59;22.20;;;12.20;;
64037;SDS011;54641;50.168;8.492;2023-01-19T08:10:30;24.10;;;11.90;;
64037;SDS011;54641;50.168;8.492;2023-01-19T08:13:01;23.10;;;10.50;;
64037;SDS011;54641;50.168;8.492;2023-01-19T08:15:31;27.30;;;13.60;;
64037;SDS011;54641;50.168;8.492;2023-01-19T08:18:02;31.90;;;16.80;;
64037;SDS011;54641;50.168;8.492;2023-01-19T08:20:35;28.00;;;15.90;;
64037;SDS011;54641;50.168;8.492;2023-01-19T08:23:05;22.00;;;12.90;;
64037;SDS011;54641;50.168;8.492;2023-01-19T08:25:36;24.70;;;13.50;;
64037;SDS011;54641;50.168;8.492;2023-01-19T08:28:09;24.70;;;13.60;;
64037;SDS011;54641;50.168;8.492;2023-01-19T08:30:43;24.70;;;11.90;;
64037;SDS011;54641;50.168;8.492;2023-01-19T08:33:20;22.20;;;12.20;;
64037;SDS011;54641;50.168;8.492;2023-01-19T08:35:52;19.30;;;11.00;;
64037;SDS011;54641;50.168;8.492;2023-01-19T08:38:22;22.60;;;11.90;;
64037;SDS011;54641;50.168;8.492;2023-01-19T08:40:53;25.90;;;13.20;;
64037;SDS011;54641;50.168;8.492;2023-01-19T08:43:23;29.40;;;15.20;;
64037;SDS011;54641;50.168;8.492;2023-01-19T08:45:54;27.90;;;15.10;;
64037;SDS011;54641;50.168;8.492;2023-01-19T08:48:24;22.20;;;11.40;;
64037;SDS011;54641;50.168;8.492;2023-01-19T08:50:54;20.30;;;11.90;;
64037;SDS011;54641;50.168;8.492;2023-01-19T08:53:25;20.60;;;12.10;;
64037;SDS011;54641;50.168;8.492;2023-01-19T08:55:56;20.50;;;11.00;;
64037;SDS011;54641;50.168;8.492;2023-01-19T08:58:27;22.80;;;12.80;;
64037;SDS011;54641;50.168;8.492;2023-01-19T09:00:59;24.60;;;12.60;;
64037;SDS011;54641;50.168;8.492;2023-01-19T09:03:31;24.70;;;13.60;;
64037;SDS011;54641;50.168;8.492;2023-01-19T09:06:01;30.80;;;16.40;;
64037;SDS011;54641;50.168;8.492;2023-01-19T09:11:03;23.80;;;13.50;;
64037;SDS011;54641;50.168;8.492;2023-01-19T09:13:37;15.20;;;8.50;;
64037;SDS011;54641;50.168;8.492;2023-01-19T09:16:08;22.10;;;11.60;;
64037;SDS011;54641;50.168;8.492;2023-01-19T09:18:41;21.30;;;11.50;;
64037;SDS011;54641;50.168;8.492;2023-01-19T09:21:12;19.90;;;10.90;;
64037;SDS011;54641;50.168;8.492;2023-01-19T09:23:43;25.30;;;13.60;;
64037;SDS011;54641;50.168;8.492;2023-01-19T09:26:13;24.90;;;13.40;;
64037;SDS011;54641;50.168;8.492;2023-01-19T09:28:44;26.60;;;14.40;;
64037;SDS011;54641;50.168;8.492;2023-01-19T09:31:17;24.90;;;12.90;;
64037;SDS011;54641;50.168;8.492;2023-01-19T09:33:48;19.80;;;11.30;;
64037;SDS011;54641;50.168;8.492;2023-01-19T09:36:19;21.10;;;11.80;;
64037;SDS011;54641;50.168;8.492;2023-01-19T09:38:49;15.60;;;9.70;;
64037;SDS011;54641;50.168;8.492;2023-01-19T09:41:20;19.40;;;10.60;;
64037;SDS011;54641;50.168;8.492;2023-01-19T09:43:53;20.70;;;10.80;;
64037;SDS011;54641;50.168;8.492;2023-01-19T09:46:27;22.60;;;11.20;;
64037;SDS011;54641;50.168;8.492;2023-01-19T09:49:32;18.20;;;10.40;;
64037;SDS011;54641;50.168;8.492;2023-01-19T09:52:06;21.40;;;10.60;;
64037;SDS011;54641;50.168;8.492;2023-01-19T09:54:38;18.40;;;10.10;;
64037;SDS011;54641;50.168;8.492;2023-01-19T09:57:11;16.50;;;10.10;;
64037;SDS011;54641;50.168;8.492;2023-01-19T09:59:41;18.80;;;9.60;;
64037;SDS011;54641;50.168;8.492;2023-01-19T10:02:21;18.80;;;10.50;;
64037;SDS011;54641;50.168;8.492;2023-01-19T10:05:04;17.40;;;9.30;;
64037;SDS011;54641;50.168;8.492;2023-01-19T10:07:43;18.40;;;9.70;;
64037;SDS011;54641;50.168;8.492;2023-01-19T10:10:21;15.50;;;8.80;;
64037;SDS011;54641;50.168;8.492;2023-01-19T10:13:01;13.80;;;6.70;;
64037;SDS011;54641;50.168;8.492;2023-01-19T10:15:41;16.30;;;8.20;;
64037;SDS011;54641;50.168;8.492;2023-01-19T10:18:21;16.50;;;9.10;;
64037;SDS011;54641;50.168;8.492;2023-01-19T10:20:58;15.70;;;8.40;;
64037;SDS011;54641;50.168;8.492;2023-01-19T10:23:35;16.60;;;9.00;;
64037;SDS011;54641;50.168;8.492;2023-01-19T10:26:09;17.00;;;8.20;;
64037;SDS011;54641;50.168;8.492;2023-01-19T10:28:43;13.10;;;4.90;;
64037;SDS011;54641;50.168;8.492;2023-01-19T10:31:16;13.60;;;8.20;;
64037;SDS011;54641;50.168;8.492;2023-01-19T10:33:49;13.00;;;8.00;;
64037;SDS011;54641;50.168;8.492;2023-01-19T10:36:27;14.50;;;8.20;;
64037;SDS011;54641;50.168;8.492;2023-01-19T10:39:03;16.20;;;8.20;;
64037;SDS011;54641;50.168;8.492;2023-01-19T10:41:38;15.70;;;8.70;;
64037;SDS011;54641;50.168;8.492;2023-01-19T10:44:10;13.10;;;7.10;;
64037;SDS011;54641;50.168;8.492;2023-01-19T10:46:42;12.70;;;6.50;;
64037;SDS011;54641;50.168;8.492;2023-01-19T10:49:23;16.10;;;8.20;;
64037;SDS011;54641;50.168;8.492;2023-01-19T10:51:56;16.10;;;8.90;;
64037;SDS011;54641;50.168;8.492;2023-01-19T10:54:28;13.60;;;7.10;;
64037;SDS011;54641;50.168;8.492;2023-01-19T10:57:00;15.30;;;8.20;;
64037;SDS011;54641;50.168;8.492;2023-01-19T10:59:32;14.00;;;7.10;;
64037;SDS011;54641;50.168;8.492;2023-01-19T11:02:13;12.40;;;6.70;;
64037;SDS011;54641;50.168;8.492;2023-01-19T11:04:46;14.60;;;8.00;;
64037;SDS011;54641;50.168;8.492;2023-01-19T11:07:20;14.80;;;8.70;;
64037;SDS011;54641;50.168;8.492;2023-01-19T11:10:10;15.70;;;8.60;;
64037;SDS011;54641;50.168;8.492;2023-01-19T11:12:45;12.80;;;7.90;;
64037;SDS011;54641;50.168;8.492;2023-01-19T11:15:22;12.70;;;7.30;;
64037;SDS011;54641;50.168;8.492;2023-01-19T11:17:53;11.30;;;7.30;;
64037;SDS011;54641;50.168;8.492;2023-01-19T11:20:24;13.10;;;7.00;;
64037;SDS011;54641;50.168;8.492;2023-01-19T11:23:07;10.90;;;7.00;;
64037;SDS011;54641;50.168;8.492;2023-01-19T11:25:48;15.40;;;8.80;;
64037;SDS011;54641;50.168;8.492;2023-01-19T11:28:21;15.60;;;8.10;;
64037;SDS011;54641;50.168;8.492;2023-01-19T11:30:55;13.50;;;7.70;;
64037;SDS011;54641;50.168;8.492;2023-01-19T11:33:32;12.50;;;7.50;;
64037;SDS011;54641;50.168;8.492;2023-01-19T11:36:05;14.50;;;8.00;;
64037;SDS011;54641;50.168;8.492;2023-01-19T11:38:42;12.50;;;7.20;;
64037;SDS011;54641;50.168;8.492;2023-01-19T11:41:16;11.80;;;5.80;;
64037;SDS011;54641;50.168;8.492;2023-01-19T11:43:49;12.90;;;7.20;;
64037;SDS011;54641;50.168;8.492;2023-01-19T11:46:21;12.00;;;6.40;;
64037;SDS011;54641;50.168;8.492;2023-01-19T11:48:53;11.50;;;6.40;;
64037;SDS011;54641;50.168;8.492;2023-01-19T11:51:29;13.00;;;7.10;;
64037;SDS011;54641;50.168;8.492;2023-01-19T11:54:08;10.70;;;6.00;;
64037;SDS011;54641;50.168;8.492;2023-01-19T11:56:45;14.60;;;8.00;;
64037;SDS011;54641;50.168;8.492;2023-01-19T12:01:48;12.50;;;6.50;;
64037;SDS011;54641;50.168;8.492;2023-01-19T12:04:24;9.20;;;5.10;;
64037;SDS011;54641;50.168;8.492;2023-01-19T12:06:58;9.90;;;5.70;;
64037;SDS011;54641;50.168;8.492;2023-01-19T12:09:34;9.60;;;5.90;;
64037;SDS011;54641;50.168;8.492;2023-01-19T12:12:11;10.60;;;5.50;;
64037;SDS011;54641;50.168;8.492;2023-01-19T12:14:46;12.60;;;7.80;;
64037;SDS011;54641;50.168;8.492;2023-01-19T12:17:22;11.10;;;5.90;;
64037;SDS011;54641;50.168;8.492;2023-01-19T12:19:55;10.30;;;6.50;;
64037;SDS011;54641;50.168;8.492;2023-01-19T12:22:35;11.50;;;6.30;;
64037;SDS011;54641;50.168;8.492;2023-01-19T12:25:11;9.10;;;4.80;;
64037;SDS011;54641;50.168;8.492;2023-01-19T12:27:46;9.80;;;5.30;;
64037;SDS011;54641;50.168;8.492;2023-01-19T12:30:19;10.00;;;5.80;;
64037;SDS011;54641;50.168;8.492;2023-01-19T12:32:50;10.00;;;6.30;;
64037;SDS011;54641;50.168;8.492;2023-01-19T12:41:19;11.10;;;5.90;;
64037;SDS011;54641;50.168;8.492;2023-01-19T12:46:54;13.70;;;8.10;;
64037;SDS011;54641;50.168;8.492;2023-01-19T12:49:31;11.60;;;6.30;;
64037;SDS011;54641;50.168;8.492;2023-01-19T12:52:11;12.50;;;6.30;;
64037;SDS011;54641;50.168;8.492;2023-01-19T12:54:51;11.50;;;6.00;;
64037;SDS011;54641;50.168;8.492;2023-01-19T12:57:26;13.00;;;6.20;;
64037;SDS011;54641;50.168;8.492;2023-01-19T13:00:00;12.10;;;6.70;;
64037;SDS011;54641;50.168;8.492;2023-01-19T13:05:25;14.10;;;7.90;;
64037;SDS011;54641;50.168;8.492;2023-01-19T13:08:21;14.60;;;6.70;;
64037;SDS011;54641;50.168;8.492;2023-01-19T13:13:36;9.50;;;4.70;;
64037;SDS011;54641;50.168;8.492;2023-01-19T13:19:33;7.40;;;4.30;;
64037;SDS011;54641;50.168;8.492;2023-01-19T13:25:31;11.90;;;6.00;;
64037;SDS011;54641;50.168;8.492;2023-01-19T13:28:05;12.50;;;6.50;;
64037;SDS011;54641;50.168;8.492;2023-01-19T13:30:43;9.80;;;6.30;;
64037;SDS011;54641;50.168;8.492;2023-01-19T13:33:21;11.50;;;5.80;;
64037;SDS011;54641;50.168;8.492;2023-01-19T13:35:55;13.50;;;7.00;;
64037;SDS011;54641;50.168;8.492;2023-01-19T13:38:26;13.50;;;7.10;;
64037;SDS011;54641;50.168;8.492;2023-01-19T13:40:59;13.40;;;7.30;;
64037;SDS011;54641;50.168;8.492;2023-01-19T13:43:33;14.80;;;7.60;;
64037;SDS011;54641;50.168;8.492;2023-01-19T13:46:05;10.60;;;6.30;;
64037;SDS011;54641;50.168;8.492;2023-01-19T13:48:39;8.90;;;5.60;;
64037;SDS011;54641;50.168;8.492;2023-01-19T13:51:16;8.40;;;5.10;;
64037;SDS011;54641;50.168;8.492;2023-01-19T13:53:53;9.30;;;4.70;;
64037;SDS011;54641;50.168;8.492;2023-01-19T13:56:24;13.10;;;6.40;;
64037;SDS011;54641;50.168;8.492;2023-01-19T13:59:00;12.90;;;6.60;;
64037;SDS011;54641;50.168;8.492;2023-01-19T14:01:37;13.20;;;7.50;;
64037;SDS011;54641;50.168;8.492;2023-01-19T14:06:54;8.80;;;5.10;;
64037;SDS011;54641;50.168;8.492;2023-01-19T14:09:26;12.00;;;5.50;;
64037;SDS011;54641;50.168;8.492;2023-01-19T14:12:08;11.60;;;6.10;;
64037;SDS011;54641;50.168;8.492;2023-01-19T14:14:41;12.00;;;6.30;;
64037;SDS011;54641;50.168;8.492;2023-01-19T14:17:21;15.20;;;7.60;;
64037;SDS011;54641;50.168;8.492;2023-01-19T14:19:53;14.90;;;7.00;;
64037;SDS011;54641;50.168;8.492;2023-01-19T14:22:37;9.80;;;5.30;;
64037;SDS011;54641;50.168;8.492;2023-01-19T14:25:23;8.30;;;5.30;;
64037;SDS011;54641;50.168;8.492;2023-01-19T14:31:02;12.20;;;6.10;;
64037;SDS011;54641;50.168;8.492;2023-01-19T14:33:49;18.60;;;6.80;;
64037;SDS011;54641;50.168;8.492;2023-01-19T14:36:23;12.00;;;7.20;;
64037;SDS011;54641;50.168;8.492;2023-01-19T14:38:56;11.10;;;5.80;;
64037;SDS011;54641;50.168;8.492;2023-01-19T14:41:28;7.70;;;4.80;;
64037;SDS011;54641;50.168;8.492;2023-01-19T14:44:01;9.30;;;6.20;;
64037;SDS011;54641;50.168;8.492;2023-01-19T14:46:37;10.90;;;6.20;;
64037;SDS011;54641;50.168;8.492;2023-01-19T14:49:15;12.00;;;6.90;;
64037;SDS011;54641;50.168;8.492;2023-01-19T14:55:44;11.30;;;6.20;;
64037;SDS011;54641;50.168;8.492;2023-01-19T14:58:19;10.70;;;6.10;;
64037;SDS011;54641;50.168;8.492;2023-01-19T15:00:51;10.70;;;6.60;;
64037;SDS011;54641;50.168;8.492;2023-01-19T15:03:23;13.90;;;7.10;;
64037;SDS011;54641;50.168;8.492;2023-01-19T15:06:11;15.00;;;7.90;;
64037;SDS011;54641;50.168;8.492;2023-01-19T15:08:43;16.60;;;8.10;;
64037;SDS011;54641;50.168;8.492;2023-01-19T15:11:16;15.00;;;8.60;;
64037;SDS011;54641;50.168;8.492;2023-01-19T15:13:50;14.00;;;8.30;;
64037;SDS011;54641;50.168;8.492;2023-01-19T15:16:21;11.60;;;7.10;;
64037;SDS011;54641;50.168;8.492;2023-01-19T15:18:52;15.30;;;8.00;;
64037;SDS011;54641;50.168;8.492;2023-01-19T15:21:23;14.40;;;8.10;;
64037;SDS011;54641;50.168;8.492;2023-01-19T15:23:55;16.60;;;8.30;;
64037;SDS011;54641;50.168;8.492;2023-01-19T15:26:25;18.80;;;9.60;;
64037;SDS011;54641;50.168;8.492;2023-01-19T15:28:56;15.30;;;9.10;;
64037;SDS011;54641;50.168;8.492;2023-01-19T15:31:26;15.00;;;8.30;;
64037;SDS011;54641;50.168;8.492;2023-01-19T15:40:42;14.20;;;7.90;;
64037;SDS011;54641;50.168;8.492;2023-01-19T15:43:18;19.70;;;9.40;;
64037;SDS011;54641;50.168;8.492;2023-01-19T15:45:49;20.90;;;9.80;;
64037;SDS011;54641;50.168;8.492;2023-01-19T15:48:22;17.80;;;9.20;;
64037;SDS011;54641;50.168;8.492;2023-01-19T15:50:53;17.20;;;9.30;;
64037;SDS011;54641;50.168;8.492;2023-01-19T15:53:23;18.00;;;8.20;;
64037;SDS011;54641;50.168;8.492;2023-01-19T15:55:54;16.70;;;9.10;;